createdAt,value
2018-08-09T00:00:07.598Z,17.13
2018-08-09T00:01:07.601Z,17.25
2018-08-09T00:02:07.572Z,17.40
2018-08-09T00:03:07.558Z,17.35
2018-08-09T00:04:07.551Z,17.20
2018-08-09T00:05:07.539Z,17.33
2018-08-09T00:06:07.541Z,17.36
2018-08-09T00:07:07.516Z,17.32
2018-08-09T00:08:07.495Z,17.30
2018-08-09T00:09:07.493Z,17.28
2018-08-09T00:10:07.485Z,17.36
2018-08-09T00:11:07.485Z,17.41
2018-08-09T00:12:07.457Z,17.29
2018-08-09T00:13:07.437Z,17.35
2018-08-09T00:14:07.432Z,17.47
2018-08-09T00:15:07.423Z,17.26
2018-08-09T00:16:07.433Z,17.40
2018-08-09T00:17:07.399Z,17.44
2018-08-09T00:18:07.387Z,17.41
2018-08-09T00:19:07.367Z,17.38
2018-08-09T00:20:07.359Z,17.35
2018-08-09T00:21:07.373Z,17.18
2018-08-09T00:22:07.335Z,17.28
2018-08-09T00:23:07.325Z,17.29
2018-08-09T00:24:07.311Z,17.32
2018-08-09T00:25:07.303Z,17.29
2018-08-09T00:26:07.314Z,17.17
2018-08-09T00:27:07.277Z,17.26
2018-08-09T00:28:07.269Z,17.20
2018-08-09T00:29:07.256Z,17.22
2018-08-09T00:30:07.246Z,17.23
2018-08-09T00:31:07.249Z,17.18
2018-08-09T00:32:07.225Z,17.22
2018-08-09T00:33:07.210Z,17.17
2018-08-09T00:34:07.193Z,17.15
2018-08-09T00:35:07.190Z,17.10
2018-08-09T00:36:07.193Z,17.08
2018-08-09T00:37:07.166Z,17.08
2018-08-09T00:38:07.146Z,17.10
2018-08-09T00:39:07.143Z,17.03
2018-08-09T00:40:07.127Z,16.95
2018-08-09T00:41:07.139Z,16.98
2018-08-09T00:42:07.110Z,16.96
2018-08-09T00:43:07.088Z,16.98
2018-08-09T00:44:07.079Z,16.99
2018-08-09T00:45:07.073Z,16.93
2018-08-09T00:46:07.078Z,17.00
2018-08-09T00:47:07.045Z,16.92
2018-08-09T00:48:07.033Z,16.85
2018-08-09T00:49:07.026Z,16.92
2018-08-09T00:50:07.015Z,16.98
2018-08-09T00:51:07.019Z,16.90
2018-08-09T00:52:06.986Z,16.98
2018-08-09T00:53:06.973Z,17.00
2018-08-09T00:54:06.963Z,16.99
2018-08-09T00:55:06.959Z,16.95
2018-08-09T00:56:06.969Z,16.88
2018-08-09T00:57:06.929Z,17.00
2018-08-09T00:58:06.920Z,16.93
2018-08-09T00:59:06.907Z,16.98
2018-08-09T01:00:06.892Z,16.95
2018-08-09T01:01:06.912Z,16.96
2018-08-09T01:02:06.871Z,16.96
2018-08-09T01:03:06.856Z,17.08
2018-08-09T01:04:06.858Z,16.96
2018-08-09T01:05:06.833Z,17.07
2018-08-09T01:06:06.852Z,17.11
2018-08-09T01:07:06.814Z,17.15
2018-08-09T01:08:06.804Z,17.11
2018-08-09T01:09:06.797Z,17.11
2018-08-09T01:10:06.776Z,17.17
2018-08-09T01:11:06.796Z,17.23
2018-08-09T01:12:06.754Z,17.20
2018-08-09T01:13:06.751Z,17.13
2018-08-09T01:14:06.738Z,17.17
2018-08-09T01:15:06.718Z,17.11
2018-08-09T01:16:06.739Z,17.17
2018-08-09T01:17:06.695Z,17.20
2018-08-09T01:18:06.683Z,17.26
2018-08-09T01:19:06.674Z,17.14
2018-08-09T01:20:06.659Z,17.29
2018-08-09T01:21:06.678Z,17.30
2018-08-09T01:22:06.645Z,17.23
2018-08-09T01:23:06.624Z,17.25
2018-08-09T01:24:06.621Z,17.18
2018-08-09T01:25:06.607Z,17.29
2018-08-09T01:26:06.617Z,17.22
2018-08-09T01:27:06.584Z,17.32
2018-08-09T01:28:06.568Z,17.32
2018-08-09T01:29:06.559Z,17.25
2018-08-09T01:30:06.551Z,17.26
2018-08-09T01:31:06.558Z,17.28
2018-08-09T01:32:06.529Z,17.22
2018-08-09T01:33:06.510Z,17.22
2018-08-09T01:34:06.500Z,17.20
2018-08-09T01:35:06.486Z,17.15
2018-08-09T01:36:06.500Z,17.17
2018-08-09T01:37:06.461Z,17.13
2018-08-09T01:38:06.456Z,17.17
2018-08-09T01:39:06.441Z,17.13
2018-08-09T01:40:06.428Z,17.15
2018-08-09T01:41:06.447Z,17.04
2018-08-09T01:42:06.405Z,17.11
2018-08-09T01:43:06.402Z,17.17
2018-08-09T01:44:06.386Z,17.06
2018-08-09T01:45:06.372Z,17.15
2018-08-09T01:46:06.400Z,17.17
2018-08-09T01:47:06.345Z,17.06
2018-08-09T01:48:06.336Z,17.00
2018-08-09T01:49:06.328Z,17.10
2018-08-09T01:50:06.312Z,16.98
2018-08-09T01:51:06.305Z,17.08
2018-08-09T01:52:06.319Z,17.08
2018-08-09T01:53:06.275Z,17.07
2018-08-09T01:54:06.265Z,17.07
2018-08-09T01:55:06.268Z,17.08
2018-08-09T01:56:06.247Z,16.99
2018-08-09T01:57:06.261Z,17.04
2018-08-09T01:58:06.219Z,16.89
2018-08-09T01:59:06.220Z,17.03
2018-08-09T02:00:06.194Z,16.89
2018-08-09T02:01:06.194Z,16.90
2018-08-09T02:02:06.206Z,16.86
2018-08-09T02:03:06.162Z,16.90
2018-08-09T02:04:06.158Z,16.95
2018-08-09T02:05:06.190Z,16.78
2018-08-09T02:06:06.127Z,16.89
2018-08-09T02:07:06.157Z,16.96
2018-08-09T02:08:06.110Z,16.83
2018-08-09T02:09:06.095Z,16.90
2018-08-09T02:10:06.083Z,16.86
2018-08-09T02:11:06.076Z,16.93
2018-08-09T02:12:06.095Z,16.83
2018-08-09T02:13:06.046Z,16.83
2018-08-09T02:14:06.039Z,16.81
2018-08-09T02:15:06.033Z,16.83
2018-08-09T02:16:06.017Z,16.85
2018-08-09T02:17:06.032Z,16.86
2018-08-09T02:18:05.996Z,16.83
2018-08-09T02:19:05.981Z,16.89
2018-08-09T02:20:05.972Z,16.83
2018-08-09T02:21:05.957Z,16.77
2018-08-09T02:22:05.975Z,16.80
2018-08-09T02:23:05.933Z,16.75
2018-08-09T02:24:05.924Z,16.86
2018-08-09T02:25:05.917Z,16.86
2018-08-09T02:26:05.902Z,16.78
2018-08-09T02:27:05.912Z,16.80
2018-08-09T02:28:05.880Z,16.78
2018-08-09T02:29:05.866Z,16.86
2018-08-09T02:30:05.860Z,16.89
2018-08-09T02:31:05.845Z,16.77
2018-08-09T02:32:05.855Z,16.85
2018-08-09T02:33:05.820Z,16.85
2018-08-09T02:34:05.809Z,16.77
2018-08-09T02:35:05.796Z,16.74
2018-08-09T02:36:05.794Z,16.80
2018-08-09T02:37:05.800Z,16.75
2018-08-09T02:38:05.767Z,16.74
2018-08-09T02:39:05.752Z,16.86
2018-08-09T02:40:05.746Z,16.74
2018-08-09T02:41:05.730Z,16.74
2018-08-09T02:42:05.750Z,16.73
2018-08-09T02:43:05.703Z,16.77
2018-08-09T02:44:05.702Z,16.78
2018-08-09T02:45:05.687Z,16.74
2018-08-09T02:46:05.680Z,16.78
2018-08-09T02:47:05.682Z,16.74
2018-08-09T02:48:05.658Z,16.81
2018-08-09T02:49:05.641Z,16.78
2018-08-09T02:50:05.626Z,16.83
2018-08-09T02:51:05.617Z,16.83
2018-08-09T02:52:05.625Z,16.85
2018-08-09T02:53:05.599Z,16.83
2018-08-09T02:54:05.581Z,16.93
2018-08-09T02:55:05.576Z,16.99
2018-08-09T02:56:05.559Z,16.95
2018-08-09T02:57:05.573Z,17.04
2018-08-09T02:58:05.537Z,17.00
2018-08-09T02:59:05.524Z,16.96
2018-08-09T03:00:05.515Z,16.93
2018-08-09T03:01:05.503Z,16.89
2018-08-09T03:02:05.514Z,17.00
2018-08-09T03:03:05.478Z,16.96
2018-08-09T03:04:05.470Z,17.08
2018-08-09T03:05:05.455Z,16.99
2018-08-09T03:06:05.459Z,16.96
2018-08-09T03:07:05.457Z,17.03
2018-08-09T03:08:05.419Z,16.96
2018-08-09T03:09:05.412Z,17.13
2018-08-09T03:10:05.401Z,17.04
2018-08-09T03:11:05.391Z,17.03
2018-08-09T03:12:05.394Z,17.03
2018-08-09T03:13:05.369Z,16.90
2018-08-09T03:14:05.358Z,16.88
2018-08-09T03:15:05.336Z,16.95
2018-08-09T03:16:05.333Z,16.96
2018-08-09T03:17:05.337Z,16.93
2018-08-09T03:18:05.311Z,16.98
2018-08-09T03:19:05.293Z,16.89
2018-08-09T03:20:05.283Z,16.96
2018-08-09T03:21:05.273Z,16.81
2018-08-09T03:22:05.280Z,16.86
2018-08-09T03:23:05.255Z,16.86
2018-08-09T03:24:05.240Z,16.83
2018-08-09T03:25:05.226Z,16.77
2018-08-09T03:26:05.219Z,16.81
2018-08-09T03:27:05.222Z,16.85
2018-08-09T03:28:05.191Z,16.80
2018-08-09T03:29:05.181Z,16.83
2018-08-09T03:30:05.165Z,16.74
2018-08-09T03:31:05.161Z,16.74
2018-08-09T03:32:05.173Z,16.68
2018-08-09T03:33:05.133Z,16.73
2018-08-09T03:34:05.119Z,16.63
2018-08-09T03:35:05.116Z,16.68
2018-08-09T03:36:05.102Z,16.58
2018-08-09T03:37:05.120Z,16.49
2018-08-09T03:38:05.082Z,16.49
2018-08-09T03:39:05.068Z,16.53
2018-08-09T03:40:05.053Z,16.41
2018-08-09T03:41:05.044Z,16.40
2018-08-09T03:42:05.056Z,16.44
2018-08-09T03:43:05.019Z,16.30
2018-08-09T03:44:05.010Z,16.34
2018-08-09T03:45:04.993Z,16.27
2018-08-09T03:46:04.992Z,16.23
2018-08-09T03:47:04.998Z,16.37
2018-08-09T03:48:04.960Z,16.30
2018-08-09T03:49:04.954Z,16.22
2018-08-09T03:50:04.947Z,16.18
2018-08-09T03:51:04.923Z,16.16
2018-08-09T03:52:04.946Z,16.26
2018-08-09T03:53:04.906Z,16.16
2018-08-09T03:54:04.890Z,16.22
2018-08-09T03:55:04.881Z,16.25
2018-08-09T03:56:04.867Z,16.16
2018-08-09T03:57:04.897Z,16.20
2018-08-09T03:58:04.846Z,16.14
2018-08-09T03:59:04.837Z,16.16
2018-08-09T04:00:04.830Z,16.22
2018-08-09T04:01:04.809Z,16.07
2018-08-09T04:02:04.798Z,16.07
2018-08-09T04:03:04.830Z,16.04
2018-08-09T04:04:04.780Z,16.03
2018-08-09T04:05:04.768Z,16.03
2018-08-09T04:06:04.752Z,16.04
2018-08-09T04:07:04.743Z,16.14
2018-08-09T04:08:04.738Z,16.03
2018-08-09T04:09:04.751Z,16.07
2018-08-09T04:10:04.713Z,16.01
2018-08-09T04:11:04.699Z,16.12
2018-08-09T04:12:04.805Z,16.15
2018-08-09T04:13:04.678Z,16.11
2018-08-09T04:14:04.660Z,16.14
2018-08-09T04:15:04.682Z,16.15
2018-08-09T04:16:04.637Z,16.22
2018-08-09T04:17:04.636Z,16.06
2018-08-09T04:18:04.617Z,16.14
2018-08-09T04:19:04.609Z,16.26
2018-08-09T04:20:04.618Z,16.23
2018-08-09T04:21:04.584Z,16.34
2018-08-09T04:22:04.571Z,16.22
2018-08-09T04:23:04.557Z,16.41
2018-08-09T04:24:04.584Z,16.38
2018-08-09T04:25:04.541Z,16.40
2018-08-09T04:26:04.522Z,16.49
2018-08-09T04:27:04.523Z,16.48
2018-08-09T04:28:04.499Z,16.55
2018-08-09T04:29:04.489Z,16.59
2018-08-09T04:30:04.505Z,16.63
2018-08-09T04:31:04.471Z,16.65
2018-08-09T04:32:04.464Z,16.67
2018-08-09T04:33:04.444Z,16.71
2018-08-09T04:34:04.431Z,16.73
2018-08-09T04:35:04.462Z,16.74
2018-08-09T04:36:04.408Z,16.80
2018-08-09T04:37:04.404Z,16.80
2018-08-09T04:38:04.497Z,16.83
2018-08-09T04:39:04.384Z,16.90
2018-08-09T04:40:04.368Z,16.83
2018-08-09T04:41:04.392Z,16.86
2018-08-09T04:42:04.349Z,16.92
2018-08-09T04:43:04.333Z,17.00
2018-08-09T04:44:04.318Z,16.95
2018-08-09T04:45:04.312Z,16.98
2018-08-09T04:46:04.294Z,16.90
2018-08-09T04:47:04.400Z,16.95
2018-08-09T04:48:04.329Z,16.96
2018-08-09T04:49:04.268Z,17.03
2018-08-09T04:50:04.249Z,17.11
2018-08-09T04:51:04.243Z,17.06
2018-08-09T04:52:04.299Z,17.13
2018-08-09T04:53:04.243Z,17.06
2018-08-09T04:54:04.204Z,17.10
2018-08-09T04:55:04.195Z,17.11
2018-08-09T04:56:04.181Z,17.18
2018-08-09T04:57:04.167Z,17.15
2018-08-09T04:58:04.215Z,17.15
2018-08-09T04:59:04.183Z,17.25
2018-08-09T05:00:04.161Z,17.28
2018-08-09T05:01:04.221Z,17.25
2018-08-09T05:02:04.112Z,17.30
2018-08-09T05:03:04.103Z,17.30
2018-08-09T05:04:04.089Z,17.29
2018-08-09T05:05:04.232Z,17.40
2018-08-09T05:06:04.069Z,17.38
2018-08-09T05:07:04.054Z,17.43
2018-08-09T05:08:04.045Z,17.44
2018-08-09T05:09:04.030Z,17.38
2018-08-09T05:10:04.020Z,17.44
2018-08-09T05:11:04.040Z,17.44
2018-08-09T05:12:03.999Z,17.44
2018-08-09T05:13:03.995Z,17.59
2018-08-09T05:14:03.996Z,17.57
2018-08-09T05:15:03.957Z,17.51
2018-08-09T05:16:03.950Z,17.63
2018-08-09T05:17:03.968Z,17.66
2018-08-09T05:18:03.924Z,17.64
2018-08-09T05:19:03.921Z,17.70
2018-08-09T05:20:03.910Z,17.85
2018-08-09T05:21:03.892Z,17.87
2018-08-09T05:22:03.968Z,17.91
2018-08-09T05:23:03.975Z,17.91
2018-08-09T05:24:03.858Z,17.84
2018-08-09T05:25:03.883Z,18.00
2018-08-09T05:26:03.839Z,18.09
2018-08-09T05:27:03.828Z,18.15
2018-08-09T05:28:03.845Z,18.13
2018-08-09T05:29:03.805Z,18.12
2018-08-09T05:30:03.857Z,18.15
2018-08-09T05:31:03.835Z,18.13
2018-08-09T05:32:03.764Z,18.17
2018-08-09T05:33:03.755Z,18.24
2018-08-09T05:34:03.796Z,18.31
2018-08-09T05:35:03.736Z,18.31
2018-08-09T05:36:03.725Z,18.29
2018-08-09T05:37:03.745Z,18.36
2018-08-09T05:38:03.761Z,18.40
2018-08-09T05:39:03.717Z,18.43
2018-08-09T05:40:03.671Z,18.58
2018-08-09T05:41:03.668Z,18.62
2018-08-09T05:42:03.653Z,18.62
2018-08-09T05:43:03.639Z,18.61
2018-08-09T05:44:03.624Z,18.73
2018-08-09T05:45:03.648Z,18.73
2018-08-09T05:46:03.658Z,18.74
2018-08-09T05:47:03.652Z,18.74
2018-08-09T05:48:03.588Z,18.73
2018-08-09T05:49:03.565Z,18.83
2018-08-09T05:50:03.570Z,18.84
2018-08-09T05:51:03.725Z,18.97
2018-08-09T05:52:03.531Z,18.90
2018-08-09T05:53:03.549Z,19.06
2018-08-09T05:54:03.556Z,19.06
2018-08-09T05:55:03.563Z,19.15
2018-08-09T05:56:03.493Z,19.20
2018-08-09T05:57:03.503Z,19.13
2018-08-09T05:58:03.540Z,19.20
2018-08-09T05:59:03.508Z,19.18
2018-08-09T06:00:03.440Z,19.25
2018-08-09T06:01:03.426Z,19.29
2018-08-09T06:02:03.414Z,19.31
2018-08-09T06:03:03.427Z,19.25
2018-08-09T06:04:03.396Z,19.38
2018-08-09T06:05:03.380Z,19.35
2018-08-09T06:06:03.374Z,19.46
2018-08-09T06:07:03.356Z,19.46
2018-08-09T06:08:03.377Z,19.53
2018-08-09T06:09:03.341Z,19.48
2018-08-09T06:10:03.325Z,19.66
2018-08-09T06:11:03.313Z,19.61
2018-08-09T06:12:03.305Z,19.63
2018-08-09T06:13:03.282Z,19.60
2018-08-09T06:14:03.303Z,19.61
2018-08-09T06:15:03.267Z,19.65
2018-08-09T06:16:03.254Z,19.65
2018-08-09T06:17:03.245Z,19.70
2018-08-09T06:18:03.265Z,19.76
2018-08-09T06:19:03.225Z,19.76
2018-08-09T06:20:03.206Z,19.76
2018-08-09T06:21:03.220Z,19.80
2018-08-09T06:22:03.191Z,19.87
2018-08-09T06:23:03.172Z,19.97
2018-08-09T06:24:03.191Z,19.98
2018-08-09T06:25:03.148Z,20.00
2018-08-09T06:26:03.135Z,20.00
2018-08-09T06:27:03.134Z,20.03
2018-08-09T06:28:03.146Z,20.10
2018-08-09T06:29:03.111Z,20.13
2018-08-09T06:30:03.099Z,20.18
2018-08-09T06:31:03.083Z,20.21
2018-08-09T06:32:03.068Z,20.16
2018-08-09T06:33:03.069Z,20.20
2018-08-09T06:34:03.084Z,20.35
2018-08-09T06:35:03.034Z,20.31
2018-08-09T06:36:03.024Z,20.47
2018-08-09T06:37:03.011Z,20.50
2018-08-09T06:38:02.999Z,20.58
2018-08-09T06:39:02.998Z,20.59
2018-08-09T06:40:03.008Z,20.65
2018-08-09T06:41:02.973Z,20.65
2018-08-09T06:42:02.962Z,20.69
2018-08-09T06:43:02.942Z,20.64
2018-08-09T06:44:02.938Z,20.86
2018-08-09T06:45:02.919Z,20.87
2018-08-09T06:46:02.946Z,20.91
2018-08-09T06:47:02.896Z,20.90
2018-08-09T06:48:02.893Z,20.81
2018-08-09T06:49:02.873Z,20.84
2018-08-09T06:50:02.861Z,20.95
2018-08-09T06:51:02.857Z,20.96
2018-08-09T06:52:02.866Z,20.98
2018-08-09T06:53:02.835Z,21.01
2018-08-09T06:54:02.817Z,21.06
2018-08-09T06:55:02.809Z,21.05
2018-08-09T06:56:02.798Z,21.14
2018-08-09T06:57:02.785Z,21.14
2018-08-09T06:58:02.806Z,21.11
2018-08-09T06:59:02.760Z,21.14
2018-08-09T07:00:02.750Z,21.19
2018-08-09T07:01:02.736Z,21.29
2018-08-09T07:02:02.727Z,21.23
2018-08-09T07:03:02.712Z,21.13
2018-08-09T07:04:02.723Z,21.23
2018-08-09T07:05:02.695Z,21.32
2018-08-09T07:06:02.679Z,21.19
2018-08-09T07:07:02.684Z,21.24
2018-08-09T07:08:02.660Z,21.20
2018-08-09T07:09:02.685Z,21.24
2018-08-09T07:10:02.635Z,21.09
2018-08-09T07:11:02.623Z,21.26
2018-08-09T07:12:02.608Z,21.32
2018-08-09T07:13:02.605Z,21.26
2018-08-09T07:14:02.592Z,21.36
2018-08-09T07:15:02.595Z,21.42
2018-08-09T07:16:02.568Z,21.35
2018-08-09T07:17:02.549Z,21.51
2018-08-09T07:18:02.545Z,21.51
2018-08-09T07:19:02.531Z,21.74
2018-08-09T07:20:02.556Z,21.76
2018-08-09T07:21:02.504Z,21.79
2018-08-09T07:22:02.866Z,21.81
2018-08-09T07:23:02.483Z,21.94
2018-08-09T07:24:02.474Z,21.94
2018-08-09T07:25:02.500Z,22.01
2018-08-09T07:26:02.457Z,22.01
2018-08-09T07:27:02.435Z,21.99
2018-08-09T07:28:02.431Z,22.07
2018-08-09T07:29:02.413Z,22.06
2018-08-09T07:30:02.405Z,21.94
2018-08-09T07:31:02.420Z,21.98
2018-08-09T07:32:02.379Z,21.94
2018-08-09T07:33:02.377Z,21.85
2018-08-09T07:34:02.359Z,21.79
2018-08-09T07:35:02.350Z,21.67
2018-08-09T07:36:02.339Z,21.79
2018-08-09T07:37:02.362Z,21.79
2018-08-09T07:38:02.321Z,21.71
2018-08-09T07:39:02.296Z,21.59
2018-08-09T07:40:02.287Z,21.66
2018-08-09T07:41:02.273Z,21.63
2018-08-09T07:42:02.262Z,21.66
2018-08-09T07:43:02.292Z,21.63
2018-08-09T07:44:02.246Z,21.67
2018-08-09T07:45:02.232Z,21.79
2018-08-09T07:46:02.221Z,21.81
2018-08-09T07:47:02.211Z,21.76
2018-08-09T07:48:02.203Z,21.91
2018-08-09T07:49:02.214Z,21.91
2018-08-09T07:50:02.174Z,21.88
2018-08-09T07:51:02.164Z,22.04
2018-08-09T07:52:02.151Z,21.95
2018-08-09T07:53:02.143Z,21.92
2018-08-09T07:54:02.133Z,21.97
2018-08-09T07:55:02.149Z,21.95
2018-08-09T07:56:02.111Z,22.20
2018-08-09T07:57:02.115Z,22.39
2018-08-09T07:58:02.085Z,22.59
2018-08-09T07:59:02.074Z,22.74
2018-08-09T08:00:02.070Z,22.92
2018-08-09T08:01:02.131Z,23.34
2018-08-09T08:02:02.036Z,23.43
2018-08-09T08:03:02.033Z,23.64
2018-08-09T08:04:02.020Z,23.72
2018-08-09T08:05:02.006Z,24.00
2018-08-09T08:06:02.051Z,24.07
2018-08-09T08:07:01.988Z,24.13
2018-08-09T08:08:01.968Z,24.23
2018-08-09T08:09:01.966Z,24.26
2018-08-09T08:10:01.955Z,24.38
2018-08-09T08:11:01.934Z,24.32
2018-08-09T08:12:01.964Z,24.38
2018-08-09T08:13:01.913Z,24.41
2018-08-09T08:14:01.901Z,24.41
2018-08-09T08:15:01.923Z,24.50
2018-08-09T08:16:01.886Z,24.39
2018-08-09T08:17:01.870Z,24.52
2018-08-09T08:18:01.895Z,24.47
2018-08-09T08:19:01.846Z,24.52
2018-08-09T08:20:01.841Z,24.37
2018-08-09T08:21:01.828Z,24.49
2018-08-09T08:22:01.820Z,24.56
2018-08-09T08:23:01.800Z,24.59
2018-08-09T08:24:01.822Z,24.83
2018-08-09T08:25:01.782Z,24.69
2018-08-09T08:26:01.767Z,24.85
2018-08-09T08:27:01.759Z,24.82
2018-08-09T08:28:01.749Z,24.87
2018-08-09T08:29:01.775Z,24.88
2018-08-09T08:30:01.724Z,24.82
2018-08-09T08:31:01.716Z,24.94
2018-08-09T08:32:01.701Z,24.94
2018-08-09T08:33:01.692Z,25.02
2018-08-09T08:34:01.687Z,25.13
2018-08-09T08:35:01.701Z,25.13
2018-08-09T08:36:01.660Z,25.24
2018-08-09T08:37:01.647Z,25.24
2018-08-09T08:38:01.637Z,25.24
2018-08-09T08:39:01.623Z,25.15
2018-08-09T08:40:01.609Z,25.02
2018-08-09T08:41:01.630Z,25.02
2018-08-09T08:42:01.594Z,24.87
2018-08-09T08:43:01.578Z,24.95
2018-08-09T08:44:01.572Z,24.77
2018-08-09T08:45:01.553Z,24.76
2018-08-09T08:46:01.543Z,24.67
2018-08-09T08:47:01.575Z,24.76
2018-08-09T08:48:01.519Z,24.59
2018-08-09T08:49:01.520Z,24.75
2018-08-09T08:50:01.505Z,24.71
2018-08-09T08:51:01.486Z,24.98
2018-08-09T08:52:01.484Z,25.09
2018-08-09T08:53:01.603Z,25.44
2018-08-09T08:54:01.463Z,25.52
2018-08-09T08:55:01.448Z,25.79
2018-08-09T08:56:01.440Z,26.11
2018-08-09T08:57:01.427Z,26.29
2018-08-09T08:58:01.410Z,26.52
2018-08-09T08:59:01.428Z,26.74
2018-08-09T09:00:01.387Z,26.92
2018-08-09T09:01:01.487Z,27.05
2018-08-09T09:02:01.370Z,27.39
2018-08-09T09:03:01.362Z,27.71
2018-08-09T09:04:01.386Z,27.92
2018-08-09T09:05:01.384Z,28.10
2018-08-09T09:06:01.330Z,28.23
2018-08-09T09:07:01.363Z,28.47
2018-08-09T09:08:01.304Z,28.73
2018-08-09T09:09:01.303Z,28.91
2018-08-09T09:10:01.314Z,29.13
2018-08-09T09:11:01.281Z,29.33
2018-08-09T09:12:01.280Z,29.29
2018-08-09T09:13:01.261Z,29.18
2018-08-09T09:14:01.250Z,29.00
2018-08-09T09:15:01.236Z,28.91
2018-08-09T09:16:01.253Z,28.80
2018-08-09T09:17:01.213Z,28.51
2018-08-09T09:18:01.198Z,28.29
2018-08-09T09:19:01.196Z,28.16
2018-08-09T09:20:01.182Z,28.06
2018-08-09T09:21:01.170Z,27.82
2018-08-09T09:22:01.189Z,27.76
2018-08-09T09:23:01.149Z,27.76
2018-08-09T09:24:01.140Z,27.76
2018-08-09T09:25:01.127Z,27.64
2018-08-09T09:26:01.115Z,27.61
2018-08-09T09:27:01.205Z,27.57
2018-08-09T09:28:01.115Z,27.46
2018-08-09T09:29:01.085Z,27.53
2018-08-09T09:30:01.069Z,27.42
2018-08-09T09:31:01.065Z,27.41
2018-08-09T09:32:01.047Z,27.39
2018-08-09T09:33:01.070Z,27.43
2018-08-09T09:34:01.028Z,27.51
2018-08-09T09:35:01.072Z,27.48
2018-08-09T09:36:01.007Z,27.48
2018-08-09T09:37:00.998Z,27.59
2018-08-09T09:38:00.982Z,27.66
2018-08-09T09:39:01.013Z,27.80
2018-08-09T09:40:00.964Z,27.92
2018-08-09T09:41:00.952Z,28.13
2018-08-09T09:42:00.938Z,28.44
2018-08-09T09:43:00.931Z,28.47
2018-08-09T09:44:00.927Z,28.59
2018-08-09T09:45:00.941Z,28.62
2018-08-09T09:46:00.900Z,28.82
2018-08-09T09:47:00.891Z,28.93
2018-08-09T09:48:00.883Z,29.15
2018-08-09T09:49:00.872Z,29.33
2018-08-09T09:50:00.855Z,29.60
2018-08-09T09:51:00.874Z,29.87
2018-08-09T09:52:00.840Z,30.09
2018-08-09T09:53:00.827Z,30.30
2018-08-09T09:54:00.818Z,30.47
2018-08-09T09:55:00.830Z,30.62
2018-08-09T09:56:00.861Z,30.98
2018-08-09T09:57:00.784Z,30.96
2018-08-09T09:58:00.776Z,31.18
2018-08-09T09:59:00.771Z,31.40
2018-08-09T10:00:00.755Z,31.45
2018-08-09T10:01:00.775Z,31.53
2018-08-09T10:02:00.751Z,31.61
2018-08-09T10:03:00.734Z,31.64
2018-08-09T10:04:00.721Z,31.75
2018-08-09T10:05:00.704Z,31.76
2018-08-09T10:06:00.699Z,31.68
2018-08-09T10:07:00.724Z,31.84
2018-08-09T10:08:00.676Z,31.98
2018-08-09T10:09:00.673Z,32.00
2018-08-09T10:10:00.652Z,32.20
2018-08-09T10:11:00.650Z,32.27
2018-08-09T10:12:00.634Z,32.30
2018-08-09T10:13:00.665Z,32.52
2018-08-09T10:14:00.614Z,32.58
2018-08-09T10:15:00.618Z,32.89
2018-08-09T10:16:00.599Z,32.95
2018-08-09T10:17:00.622Z,33.34
2018-08-09T10:18:00.588Z,33.45
2018-08-09T10:19:00.601Z,33.58
2018-08-09T10:20:00.558Z,33.83
2018-08-09T10:21:00.555Z,33.67
2018-08-09T10:22:00.538Z,33.68
2018-08-09T10:23:00.528Z,33.61
2018-08-09T10:24:00.523Z,33.49
2018-08-09T10:25:00.540Z,33.65
2018-08-09T10:26:00.506Z,33.53
2018-08-09T10:27:00.486Z,33.53
2018-08-09T10:28:00.481Z,33.58
2018-08-09T10:29:00.469Z,33.65
2018-08-09T10:30:00.465Z,33.68
2018-08-09T10:31:00.481Z,33.85
2018-08-09T10:32:00.448Z,33.78
2018-08-09T10:33:00.431Z,33.68
2018-08-09T10:34:00.426Z,33.63
2018-08-09T10:35:00.438Z,33.74
2018-08-09T10:36:00.403Z,33.71
2018-08-09T10:37:00.400Z,33.74
2018-08-09T10:38:00.387Z,33.76
2018-08-09T10:39:00.378Z,33.68
2018-08-09T10:40:00.388Z,33.73
2018-08-09T10:41:00.361Z,33.83
2018-08-09T10:42:00.344Z,33.83
2018-08-09T10:43:00.342Z,33.82
2018-08-09T10:44:00.327Z,33.80
2018-08-09T10:45:00.344Z,33.73
2018-08-09T10:46:00.309Z,33.63
2018-08-09T10:47:00.295Z,33.51
2018-08-09T10:48:00.284Z,33.41
2018-08-09T10:49:00.321Z,33.29
2018-08-09T10:50:00.299Z,33.19
2018-08-09T10:51:00.259Z,33.11
2018-08-09T10:52:00.256Z,33.06
2018-08-09T10:53:00.233Z,33.14
2018-08-09T10:54:00.229Z,33.14
2018-08-09T10:55:00.222Z,33.19
2018-08-09T10:56:00.233Z,33.37
2018-08-09T10:57:00.198Z,33.64
2018-08-09T10:58:00.187Z,33.68
2018-08-09T10:59:00.182Z,34.00
2018-08-09T11:00:00.201Z,34.23
2018-08-09T11:01:00.155Z,34.45
2018-08-09T11:02:00.154Z,34.79
2018-08-09T11:03:00.139Z,34.99
2018-08-09T11:04:00.135Z,35.07
2018-08-09T11:05:00.117Z,35.11
2018-08-09T11:06:00.139Z,35.29
2018-08-09T11:07:00.108Z,35.44
2018-08-09T11:08:00.088Z,35.60
2018-08-09T11:09:00.089Z,35.77
2018-08-09T11:10:00.084Z,36.03
2018-08-09T11:11:00.069Z,36.11
2018-08-09T11:12:00.100Z,36.20
2018-08-09T11:13:00.043Z,36.30
2018-08-09T11:14:00.034Z,36.36
2018-08-09T11:15:00.056Z,36.48
2018-08-09T11:16:00.016Z,36.52
2018-08-09T11:17:00.048Z,36.43
2018-08-09T11:18:00.032Z,36.42
2018-08-09T11:18:59.992Z,36.39
2018-08-09T11:19:59.983Z,36.30
2018-08-09T11:20:59.971Z,36.20
2018-08-09T11:21:59.963Z,36.17
2018-08-09T11:22:59.958Z,36.29
2018-08-09T11:23:59.974Z,36.26
2018-08-09T11:24:59.937Z,36.45
2018-08-09T11:25:59.928Z,36.48
2018-08-09T11:26:59.949Z,36.61
2018-08-09T11:27:59.908Z,36.86
2018-08-09T11:28:59.897Z,37.05
2018-08-09T11:29:59.927Z,37.43
2018-08-09T11:30:59.876Z,37.76
2018-08-09T11:31:59.877Z,37.85
2018-08-09T11:32:59.873Z,37.92
2018-08-09T11:33:59.869Z,38.11
2018-08-09T11:34:59.846Z,38.10
2018-08-09T11:35:59.873Z,38.27
2018-08-09T11:36:59.823Z,38.26
2018-08-09T11:37:59.819Z,38.27
2018-08-09T11:38:59.808Z,38.38
2018-08-09T11:39:59.796Z,38.41
2018-08-09T11:40:59.796Z,38.45
2018-08-09T11:41:59.819Z,38.36
2018-08-09T11:42:59.823Z,38.41
2018-08-09T11:43:59.769Z,38.52
2018-08-09T11:44:59.751Z,38.61
2018-08-09T11:45:59.748Z,38.36
2018-08-09T11:46:59.735Z,38.07
2018-08-09T11:47:59.763Z,37.88
2018-08-09T11:48:59.725Z,37.88
2018-08-09T11:49:59.712Z,37.74
2018-08-09T11:50:59.699Z,37.56
2018-08-09T11:51:59.687Z,37.36
2018-08-09T11:52:59.694Z,37.32
2018-08-09T11:53:59.701Z,37.21
2018-08-09T11:54:59.665Z,37.09
2018-08-09T11:55:59.661Z,36.99
2018-08-09T11:56:59.680Z,36.87
2018-08-09T11:57:59.629Z,36.91
2018-08-09T11:58:59.623Z,37.02
2018-08-09T11:59:59.642Z,36.90
2018-08-09T12:00:59.603Z,36.86
2018-08-09T12:01:59.595Z,36.76
2018-08-09T12:02:59.588Z,36.76
2018-08-09T12:03:59.585Z,36.58
2018-08-09T12:04:59.562Z,36.65
2018-08-09T12:05:59.585Z,36.86
2018-08-09T12:06:59.545Z,36.91
2018-08-09T12:07:59.543Z,37.12
2018-08-09T12:08:59.524Z,37.16
2018-08-09T12:09:59.515Z,37.14
2018-08-09T12:10:59.539Z,37.17
2018-08-09T12:11:59.496Z,37.26
2018-08-09T12:12:59.507Z,37.24
2018-08-09T12:13:59.485Z,37.12
2018-08-09T12:14:59.477Z,37.05
2018-08-09T12:15:59.489Z,36.76
2018-08-09T12:16:59.446Z,36.58
2018-08-09T12:17:59.436Z,36.38
2018-08-09T12:18:59.431Z,36.04
2018-08-09T12:19:59.421Z,35.89
2018-08-09T12:20:59.445Z,35.64
2018-08-09T12:21:59.434Z,35.28
2018-08-09T12:22:59.389Z,35.11
2018-08-09T12:23:59.379Z,34.86
2018-08-09T12:24:59.366Z,34.56
2018-08-09T12:25:59.355Z,34.16
2018-08-09T12:26:59.383Z,34.04
2018-08-09T12:27:59.358Z,33.90
2018-08-09T12:28:59.326Z,33.65
2018-08-09T12:29:59.309Z,33.43
2018-08-09T12:30:59.309Z,33.31
2018-08-09T12:31:59.290Z,33.26
2018-08-09T12:32:59.339Z,33.13
2018-08-09T12:33:59.270Z,32.84
2018-08-09T12:34:59.261Z,32.76
2018-08-09T12:35:59.248Z,32.59
2018-08-09T12:36:59.239Z,32.59
2018-08-09T12:37:59.226Z,32.54
2018-08-09T12:38:59.242Z,32.35
2018-08-09T12:39:59.211Z,32.30
2018-08-09T12:40:59.191Z,32.22
2018-08-09T12:41:59.187Z,32.14
2018-08-09T12:42:59.173Z,32.05
2018-08-09T12:43:59.188Z,32.06
2018-08-09T12:44:59.156Z,32.15
2018-08-09T12:45:59.146Z,32.20
2018-08-09T12:46:59.126Z,32.24
2018-08-09T12:47:59.116Z,32.10
2018-08-09T12:48:59.110Z,32.13
2018-08-09T12:49:59.130Z,32.10
2018-08-09T12:50:59.086Z,32.13
2018-08-09T12:51:59.073Z,32.07